createdAt,value
2019-06-26T00:01:56.744Z,6.65
2019-06-26T00:04:25.548Z,5.92
2019-06-26T00:06:54.600Z,6.10
2019-06-26T00:09:23.987Z,6.87
2019-06-26T00:11:53.336Z,6.42
2019-06-26T00:14:21.678Z,6.35
2019-06-26T00:16:50.457Z,6.03
2019-06-26T00:19:19.054Z,5.37
2019-06-26T00:21:49.266Z,6.15
2019-06-26T00:24:18.355Z,7.25
2019-06-26T00:26:47.357Z,6.80
2019-06-26T00:29:17.162Z,6.60
2019-06-26T00:31:46.144Z,6.37
2019-06-26T00:34:15.132Z,6.25
2019-06-26T00:36:44.245Z,7.33
2019-06-26T00:39:14.064Z,7.03
2019-06-26T00:41:42.746Z,6.50
2019-06-26T00:44:11.432Z,6.80
2019-06-26T00:46:40.431Z,6.92
2019-06-26T00:49:09.114Z,7.62
2019-06-26T00:51:37.601Z,6.42
2019-06-26T00:54:06.266Z,6.53
2019-06-26T00:56:35.631Z,7.37
2019-06-26T00:59:04.663Z,7.30
2019-06-26T01:01:35.398Z,6.83
2019-06-26T01:04:10.497Z,6.87
2019-06-26T01:06:44.922Z,7.17
2019-06-26T01:09:14.818Z,7.22
2019-06-26T01:11:45.098Z,7.03
2019-06-26T01:14:14.420Z,7.40
2019-06-26T01:16:43.714Z,7.05
2019-06-26T01:19:12.405Z,6.97
2019-06-26T01:21:41.108Z,7.28
2019-06-26T01:24:11.765Z,7.12
2019-06-26T01:26:40.320Z,6.95
2019-06-26T01:29:09.416Z,8.13
2019-06-26T01:31:37.976Z,7.60
2019-06-26T01:34:06.671Z,7.90
2019-06-26T01:36:35.347Z,7.75
2019-06-26T01:39:05.567Z,7.53
2019-06-26T01:44:14.131Z,7.35
2019-06-26T01:46:33.825Z,7.95
2019-06-26T01:49:02.698Z,7.50
2019-06-26T01:51:31.484Z,8.00
2019-06-26T01:54:00.176Z,9.13
2019-06-26T01:56:31.384Z,7.83
2019-06-26T01:59:01.468Z,8.20
2019-06-26T02:01:30.239Z,8.00
2019-06-26T02:04:00.960Z,8.85
2019-06-26T02:06:30.070Z,7.95
2019-06-26T02:08:59.032Z,8.18
2019-06-26T02:13:57.453Z,8.23
2019-06-26T02:16:26.359Z,7.90
2019-06-26T02:18:59.169Z,8.53
2019-06-26T02:21:28.529Z,8.00
2019-06-26T02:23:57.655Z,8.65
2019-06-26T02:26:27.830Z,8.20
2019-06-26T02:28:56.339Z,8.05
2019-06-26T02:31:24.890Z,8.03
2019-06-26T02:33:53.635Z,9.65
2019-06-26T02:36:22.381Z,9.10
2019-06-26T02:38:51.210Z,8.68
2019-06-26T02:41:19.797Z,9.68
2019-06-26T02:43:48.905Z,8.30
2019-06-26T02:46:17.646Z,8.78
2019-06-26T02:48:46.961Z,8.53
2019-06-26T02:51:15.611Z,9.10
2019-06-26T02:53:44.430Z,9.40
2019-06-26T02:56:14.023Z,9.88
2019-06-26T02:58:42.721Z,9.28
2019-06-26T03:01:11.599Z,9.80
2019-06-26T03:03:40.294Z,9.65
2019-06-26T03:08:39.007Z,9.58
2019-06-26T03:11:07.584Z,9.68
2019-06-26T03:13:37.807Z,10.10
2019-06-26T03:16:06.479Z,10.35
2019-06-26T03:18:35.572Z,10.40
2019-06-26T03:23:34.417Z,10.95
2019-06-26T03:26:03.376Z,10.15
2019-06-26T03:28:33.721Z,10.90
2019-06-26T03:31:02.280Z,10.80
2019-06-26T03:33:30.989Z,9.85
2019-06-26T03:35:59.969Z,10.23
2019-06-26T03:38:29.678Z,10.78
2019-06-26T03:40:58.282Z,11.10
2019-06-26T03:43:26.782Z,10.98
2019-06-26T03:45:55.389Z,11.25
2019-06-26T03:48:24.034Z,11.90
2019-06-26T03:50:53.025Z,10.75
2019-06-26T03:53:21.746Z,11.75
2019-06-26T03:55:50.501Z,11.10
2019-06-26T03:58:19.077Z,11.25
2019-06-26T04:00:47.747Z,11.38
2019-06-26T04:03:16.061Z,11.68
2019-06-26T04:05:44.602Z,12.95
2019-06-26T04:08:15.050Z,12.05
2019-06-26T04:10:43.802Z,11.40
2019-06-26T04:13:12.404Z,11.65
2019-06-26T04:15:42.755Z,12.05
2019-06-26T04:20:39.699Z,12.10
2019-06-26T04:23:08.098Z,10.85
2019-06-26T04:25:38.311Z,10.98
2019-06-26T04:28:07.317Z,10.68
2019-06-26T04:30:36.240Z,11.38
2019-06-26T04:33:04.756Z,11.50
2019-06-26T04:35:33.670Z,12.88
2019-06-26T04:38:02.331Z,11.75
2019-06-26T04:40:31.107Z,11.25
2019-06-26T04:43:00.075Z,12.05
2019-06-26T04:45:29.354Z,12.83
2019-06-26T04:47:59.021Z,12.10
2019-06-26T04:50:27.651Z,12.68
2019-06-26T04:52:55.988Z,13.35
2019-06-26T04:55:25.085Z,12.50
2019-06-26T04:57:53.562Z,12.68
2019-06-26T05:00:23.605Z,12.10
2019-06-26T05:02:51.993Z,12.35
2019-06-26T05:05:20.712Z,11.88
2019-06-26T05:07:49.059Z,14.00
2019-06-26T05:10:19.586Z,13.15
2019-06-26T05:12:48.269Z,13.30
2019-06-26T05:15:19.295Z,12.53
2019-06-26T05:17:49.568Z,13.22
2019-06-26T05:20:18.341Z,14.00
2019-06-26T05:22:46.691Z,13.50
2019-06-26T05:25:15.352Z,14.13
2019-06-26T05:27:43.698Z,14.73
2019-06-26T05:30:12.854Z,12.45
2019-06-26T05:32:43.297Z,13.20
2019-06-26T05:35:12.494Z,14.18
2019-06-26T05:37:40.991Z,14.18
2019-06-26T05:40:11.059Z,15.05
2019-06-26T05:42:39.755Z,13.98
2019-06-26T05:45:09.524Z,13.98
2019-06-26T05:47:37.905Z,15.25
2019-06-26T05:50:07.635Z,14.40
2019-06-26T05:52:36.469Z,15.58
2019-06-26T05:55:05.820Z,15.48
2019-06-26T05:57:34.205Z,14.13
2019-06-26T06:00:05.149Z,15.50
2019-06-26T06:02:33.696Z,15.32
2019-06-26T06:05:03.185Z,14.80
2019-06-26T06:07:31.986Z,15.88
2019-06-26T06:10:02.300Z,16.10
2019-06-26T06:12:32.660Z,15.05
2019-06-26T06:15:01.031Z,14.28
2019-06-26T06:17:30.110Z,15.23
2019-06-26T06:19:59.858Z,15.72
2019-06-26T06:22:30.383Z,13.83
2019-06-26T06:24:58.929Z,16.02
2019-06-26T06:27:27.691Z,14.68
2019-06-26T06:29:56.477Z,15.80
2019-06-26T06:32:24.986Z,14.73
2019-06-26T06:34:54.933Z,15.32
2019-06-26T06:37:23.599Z,15.98
2019-06-26T06:39:51.941Z,15.20
2019-06-26T06:42:21.192Z,15.55
2019-06-26T06:44:49.980Z,14.63
2019-06-26T06:47:18.630Z,16.23
2019-06-26T06:49:47.342Z,15.08
2019-06-26T06:52:17.393Z,16.67
2019-06-26T06:54:45.757Z,15.25
2019-06-26T06:57:14.320Z,15.35
2019-06-26T06:59:43.030Z,15.32
2019-06-26T07:02:11.349Z,14.68
2019-06-26T07:04:40.057Z,15.32
2019-06-26T07:07:08.784Z,15.15
2019-06-26T07:09:37.122Z,13.80
2019-06-26T07:12:05.510Z,14.03
2019-06-26T07:14:35.695Z,14.55
2019-06-26T07:17:19.278Z,14.50
2019-06-26T07:22:07.198Z,14.87
2019-06-26T07:24:35.745Z,14.10
2019-06-26T07:27:04.366Z,14.38
2019-06-26T07:29:32.868Z,14.80
2019-06-26T07:32:02.016Z,14.98
2019-06-26T07:34:30.357Z,14.38
2019-06-26T07:37:02.490Z,13.70
2019-06-26T07:39:31.184Z,13.88
2019-06-26T07:41:59.908Z,13.62
2019-06-26T07:44:31.037Z,13.70
2019-06-26T07:47:00.520Z,15.78
2019-06-26T07:49:30.007Z,14.05
2019-06-26T07:51:58.869Z,14.23
2019-06-26T07:54:28.876Z,13.13
2019-06-26T07:56:58.164Z,14.20
2019-06-26T07:59:26.569Z,13.90
2019-06-26T08:01:55.280Z,13.25
2019-06-26T08:04:23.642Z,13.20
2019-06-26T08:06:52.373Z,13.45
2019-06-26T08:09:21.012Z,12.00
2019-06-26T08:11:49.815Z,12.28
2019-06-26T08:14:18.769Z,12.40
2019-06-26T08:16:49.209Z,11.88
2019-06-26T08:19:20.701Z,12.98
2019-06-26T08:21:49.798Z,12.78
2019-06-26T08:24:19.747Z,12.68
2019-06-26T08:26:48.444Z,11.75
2019-06-26T08:29:17.415Z,11.48
2019-06-26T08:31:46.014Z,11.12
2019-06-26T08:34:16.689Z,12.15
2019-06-26T08:36:45.496Z,11.35
2019-06-26T08:41:43.793Z,11.10
2019-06-26T08:44:12.613Z,11.00
2019-06-26T08:46:41.492Z,10.63
2019-06-26T08:49:24.441Z,11.05
2019-06-26T08:51:41.607Z,11.00
2019-06-26T08:54:10.306Z,10.53
2019-06-26T08:56:39.348Z,10.08
2019-06-26T08:59:08.324Z,11.68
2019-06-26T09:01:37.101Z,10.85
2019-06-26T09:04:06.298Z,11.40
2019-06-26T09:06:35.382Z,10.72
2019-06-26T09:09:07.111Z,11.83
2019-06-26T09:11:36.349Z,11.78
2019-06-26T09:14:05.180Z,11.43
2019-06-26T09:16:34.208Z,10.90
2019-06-26T09:19:05.149Z,10.63
2019-06-26T09:21:34.003Z,11.22
2019-06-26T09:24:02.764Z,10.55
2019-06-26T09:26:33.078Z,11.30
2019-06-26T09:29:02.618Z,11.10
2019-06-26T09:31:31.613Z,10.32
2019-06-26T09:34:00.366Z,10.65
2019-06-26T09:36:29.576Z,10.73
2019-06-26T09:38:58.453Z,11.10
2019-06-26T09:41:28.201Z,10.60
2019-06-26T09:43:56.798Z,11.80
2019-06-26T09:46:25.491Z,10.15
2019-06-26T09:48:54.530Z,11.18
2019-06-26T09:51:23.286Z,12.03
2019-06-26T09:53:52.282Z,10.55
2019-06-26T09:56:21.439Z,10.55
2019-06-26T09:58:50.528Z,10.40
2019-06-26T10:01:19.289Z,9.58
2019-06-26T10:03:48.238Z,8.75
2019-06-26T10:06:16.757Z,8.93
2019-06-26T10:08:45.728Z,8.93
2019-06-26T10:11:14.720Z,10.40
2019-06-26T10:13:43.665Z,9.98
2019-06-26T10:16:12.665Z,9.60
2019-06-26T10:18:41.604Z,9.48
2019-06-26T10:21:12.486Z,9.60
2019-06-26T10:23:41.508Z,9.07
2019-06-26T10:26:10.786Z,8.50
2019-06-26T10:28:40.659Z,8.90
2019-06-26T10:31:09.490Z,8.08
2019-06-26T10:33:38.097Z,7.97
2019-06-26T10:36:07.253Z,8.10
2019-06-26T10:38:35.756Z,8.73
2019-06-26T10:41:04.405Z,8.28
2019-06-26T10:43:35.978Z,8.93
2019-06-26T10:46:05.252Z,9.55
2019-06-26T10:48:43.228Z,8.35
2019-06-26T10:51:12.190Z,10.08
2019-06-26T10:53:41.112Z,9.53
2019-06-26T10:56:09.741Z,9.08
2019-06-26T10:58:38.419Z,10.05
2019-06-26T11:01:09.013Z,9.68
2019-06-26T11:03:37.959Z,11.03
2019-06-26T11:06:06.274Z,9.50
2019-06-26T11:08:35.277Z,10.45
2019-06-26T11:11:04.019Z,10.63
2019-06-26T11:13:32.772Z,10.68
2019-06-26T11:16:02.764Z,10.40
2019-06-26T11:18:31.901Z,10.08
2019-06-26T11:21:01.756Z,9.55
2019-06-26T11:23:32.527Z,10.32
2019-06-26T11:26:02.245Z,9.30
2019-06-26T11:28:31.356Z,9.28
2019-06-26T11:31:02.106Z,10.38
2019-06-26T11:33:31.112Z,10.17
2019-06-26T11:35:59.805Z,10.03
2019-06-26T11:38:28.857Z,10.68
2019-06-26T11:40:57.611Z,10.20
2019-06-26T11:43:27.123Z,10.35
2019-06-26T11:45:56.983Z,10.25
2019-06-26T11:48:25.770Z,10.28
2019-06-26T11:50:54.325Z,11.73
2019-06-26T11:53:23.241Z,8.63
2019-06-26T11:55:53.404Z,8.53
2019-06-26T11:58:22.993Z,6.60
2019-06-26T12:00:51.892Z,7.08
2019-06-26T12:03:21.206Z,7.75
2019-06-26T12:05:50.202Z,7.40
2019-06-26T12:08:19.317Z,6.75
2019-06-26T12:10:48.174Z,7.78
2019-06-26T12:13:17.029Z,7.77
2019-06-26T12:15:45.833Z,8.20
2019-06-26T12:18:14.767Z,6.90
2019-06-26T12:20:43.936Z,7.50
2019-06-26T12:23:15.521Z,7.30
2019-06-26T12:25:46.452Z,6.78
2019-06-26T12:28:15.501Z,6.97
2019-06-26T12:30:44.184Z,6.37
2019-06-26T12:33:13.249Z,6.53
2019-06-26T12:35:41.840Z,6.33
2019-06-26T12:38:10.530Z,6.10
2019-06-26T12:40:39.732Z,6.20
2019-06-26T12:43:09.253Z,6.33
2019-06-26T12:45:38.153Z,7.22
2019-06-26T12:48:10.926Z,7.28
2019-06-26T12:50:40.091Z,5.53
2019-06-26T12:53:08.771Z,5.30
2019-06-26T12:55:37.533Z,5.67
2019-06-26T13:00:37.922Z,6.72
2019-06-26T13:03:06.899Z,5.97
2019-06-26T13:05:36.799Z,5.45
2019-06-26T13:08:05.805Z,5.70
2019-06-26T13:10:48.989Z,5.90
2019-06-26T13:13:06.355Z,6.03
2019-06-26T13:15:36.255Z,5.20
2019-06-26T13:18:04.980Z,5.40
2019-06-26T13:20:33.522Z,6.07
2019-06-26T13:23:02.360Z,5.45
2019-06-26T13:25:31.045Z,5.50
2019-06-26T13:28:01.756Z,5.10
2019-06-26T13:30:36.977Z,5.45
2019-06-26T13:33:05.855Z,6.37
2019-06-26T13:35:36.592Z,5.92
2019-06-26T13:38:05.363Z,7.07
2019-06-26T13:40:34.088Z,7.50
2019-06-26T13:43:02.785Z,7.33
2019-06-26T13:45:31.457Z,6.60
2019-06-26T13:48:00.293Z,6.70
2019-06-26T13:50:32.525Z,6.62
2019-06-26T13:53:02.760Z,6.70
2019-06-26T13:55:31.462Z,6.50
2019-06-26T13:58:00.220Z,7.42
2019-06-26T14:00:29.415Z,7.58
2019-06-26T14:02:57.807Z,7.00
2019-06-26T14:05:29.496Z,7.20
2019-06-26T14:07:59.160Z,7.35
2019-06-26T14:10:27.897Z,7.22
2019-06-26T14:12:56.904Z,7.30
2019-06-26T14:15:25.934Z,7.17
2019-06-26T14:17:54.438Z,6.90
2019-06-26T14:20:23.214Z,6.97
2019-06-26T14:22:52.687Z,7.17
2019-06-26T14:25:21.972Z,6.55
2019-06-26T14:27:50.625Z,7.30
2019-06-26T14:30:21.879Z,6.78
2019-06-26T14:32:50.732Z,7.17
2019-06-26T14:35:19.533Z,7.10
2019-06-26T14:37:50.083Z,7.72
2019-06-26T14:40:18.675Z,7.62
2019-06-26T14:42:47.241Z,7.75
2019-06-26T14:45:16.126Z,7.55
2019-06-26T14:47:45.057Z,7.28
2019-06-26T14:50:13.862Z,8.33
2019-06-26T14:52:45.958Z,8.00
2019-06-26T14:55:15.272Z,8.23
2019-06-26T14:57:44.617Z,7.53
2019-06-26T15:00:14.012Z,8.15
2019-06-26T15:02:43.079Z,8.95
2019-06-26T15:05:11.890Z,8.85
2019-06-26T15:07:40.710Z,8.10
2019-06-26T15:10:10.071Z,8.33
2019-06-26T15:12:39.002Z,7.85
2019-06-26T15:15:08.166Z,8.05
2019-06-26T15:17:36.874Z,8.13
2019-06-26T15:20:07.226Z,7.90
2019-06-26T15:22:39.686Z,8.30
2019-06-26T15:25:08.766Z,8.18
2019-06-26T15:27:37.474Z,8.05
2019-06-26T15:30:06.601Z,7.97
2019-06-26T15:32:37.338Z,8.60
2019-06-26T15:35:07.510Z,7.45
2019-06-26T15:37:36.763Z,7.87
2019-06-26T15:42:34.989Z,8.35
2019-06-26T15:45:04.603Z,7.72
2019-06-26T15:47:33.724Z,7.72
2019-06-26T15:50:02.419Z,6.65
2019-06-26T15:52:31.663Z,8.03
2019-06-26T15:55:02.114Z,7.37
2019-06-26T15:57:30.587Z,8.05
2019-06-26T15:59:59.617Z,7.35
2019-06-26T16:02:28.751Z,7.85
2019-06-26T16:04:57.835Z,6.95
2019-06-26T16:07:26.632Z,7.10
2019-06-26T16:09:55.693Z,7.85
2019-06-26T16:12:24.872Z,7.53
2019-06-26T16:14:53.884Z,6.80
2019-06-26T16:17:39.086Z,7.03
2019-06-26T16:20:08.411Z,8.55
2019-06-26T16:22:37.111Z,6.75
2019-06-26T16:25:06.620Z,7.08
2019-06-26T16:30:04.397Z,7.30
2019-06-26T16:35:03.561Z,7.83
2019-06-26T16:37:32.011Z,7.28
2019-06-26T16:40:02.868Z,8.38
2019-06-26T16:42:32.890Z,7.58
2019-06-26T16:45:01.903Z,7.10
2019-06-26T16:47:31.243Z,8.08
2019-06-26T16:49:59.759Z,7.58
2019-06-26T16:52:28.501Z,8.10
2019-06-26T16:54:57.130Z,7.83
2019-06-26T16:57:27.506Z,6.80
2019-06-26T17:00:08.880Z,7.23
2019-06-26T17:02:26.673Z,8.05
2019-06-26T17:04:55.800Z,7.17
2019-06-26T17:07:24.565Z,7.53
2019-06-26T17:09:53.613Z,6.97
2019-06-26T17:12:22.253Z,7.17
2019-06-26T17:14:52.520Z,7.60
2019-06-26T17:17:21.344Z,7.22
2019-06-26T17:19:50.117Z,6.92
2019-06-26T17:22:19.481Z,7.70
2019-06-26T17:24:48.692Z,7.03
2019-06-26T17:27:17.421Z,6.57
2019-06-26T17:29:45.964Z,6.45
2019-06-26T17:32:14.841Z,5.83
2019-06-26T17:34:43.474Z,6.30
2019-06-26T17:37:14.005Z,6.42
2019-06-26T17:39:43.090Z,6.97
2019-06-26T17:42:11.809Z,6.92
2019-06-26T17:44:42.042Z,6.00
2019-06-26T17:47:10.906Z,6.53
2019-06-26T17:49:40.573Z,6.80
2019-06-26T17:52:09.138Z,6.97
2019-06-26T17:54:37.986Z,7.05
2019-06-26T17:57:06.698Z,7.50
2019-06-26T17:59:36.026Z,7.10
2019-06-26T18:02:04.852Z,6.90
2019-06-26T18:04:33.650Z,6.70
2019-06-26T18:07:02.348Z,7.50
2019-06-26T18:09:31.326Z,7.55
2019-06-26T18:12:00.667Z,7.10
2019-06-26T18:14:31.089Z,7.33
2019-06-26T18:17:01.046Z,7.42
2019-06-26T18:19:30.381Z,7.08
2019-06-26T18:21:59.217Z,7.72
2019-06-26T18:24:28.308Z,8.27
2019-06-26T18:26:56.956Z,9.08
2019-06-26T18:29:25.795Z,7.70
2019-06-26T18:31:56.549Z,8.03
2019-06-26T18:34:25.137Z,7.85
2019-06-26T18:36:53.835Z,7.55
2019-06-26T18:39:24.401Z,7.95
2019-06-26T18:41:53.083Z,7.97
2019-06-26T18:44:21.734Z,8.80
2019-06-26T18:46:51.960Z,8.55
2019-06-26T18:49:21.208Z,7.58
2019-06-26T18:51:49.786Z,8.00
2019-06-26T18:54:18.589Z,6.97
2019-06-26T18:56:47.323Z,8.70
2019-06-26T18:59:16.466Z,8.43
2019-06-26T19:01:46.862Z,8.55
2019-06-26T19:04:21.934Z,9.35
2019-06-26T19:18:09.467Z,8.30
2019-06-26T19:20:40.143Z,8.18
2019-06-26T19:23:08.798Z,8.05
2019-06-26T19:25:37.454Z,8.85
2019-06-26T19:28:06.204Z,9.18
2019-06-26T19:30:34.811Z,8.73
2019-06-26T19:33:05.297Z,10.23
2019-06-26T19:35:34.107Z,9.65
2019-06-26T19:38:02.767Z,9.48
2019-06-26T19:40:35.002Z,9.35
2019-06-26T19:43:04.420Z,8.93
2019-06-26T19:45:33.346Z,9.95
2019-06-26T19:48:02.516Z,9.75
2019-06-26T19:50:31.449Z,9.73
2019-06-26T19:53:00.422Z,10.03
2019-06-26T19:55:28.732Z,9.90
2019-06-26T19:57:57.518Z,10.03
2019-06-26T20:00:26.452Z,9.65
2019-06-26T20:02:54.906Z,9.78
2019-06-26T20:05:23.576Z,9.80
2019-06-26T20:07:52.514Z,10.05
2019-06-26T20:10:21.354Z,9.90
2019-06-26T20:12:49.885Z,10.20
2019-06-26T20:15:18.606Z,10.25
2019-06-26T20:17:53.678Z,10.58
2019-06-26T20:20:22.458Z,10.90
2019-06-26T20:22:53.251Z,10.25
2019-06-26T20:25:22.011Z,10.38
2019-06-26T20:27:56.916Z,9.68
2019-06-26T20:30:27.276Z,9.95
2019-06-26T20:32:56.904Z,10.35
2019-06-26T20:35:25.938Z,9.90
2019-06-26T20:37:54.906Z,10.13
2019-06-26T20:40:24.180Z,10.85
2019-06-26T20:42:52.863Z,9.88
2019-06-26T20:45:21.995Z,10.45
2019-06-26T20:47:50.577Z,10.25
2019-06-26T20:50:19.520Z,10.53
2019-06-26T20:52:47.940Z,9.95
2019-06-26T20:55:16.961Z,10.60
2019-06-26T20:57:45.983Z,10.03
2019-06-26T21:00:15.646Z,9.93
2019-06-26T21:02:44.371Z,11.08
2019-06-26T21:05:13.217Z,9.23
2019-06-26T21:07:42.212Z,10.55
2019-06-26T21:10:11.575Z,9.80
2019-06-26T21:12:40.296Z,10.97
2019-06-26T21:15:10.437Z,11.03
2019-06-26T21:20:07.868Z,9.93
2019-06-26T21:22:36.531Z,11.85
2019-06-26T21:25:17.484Z,9.83
2019-06-26T21:27:38.266Z,10.55
2019-06-26T21:30:09.255Z,11.10
2019-06-26T21:32:37.820Z,11.60
2019-06-26T21:35:06.269Z,9.68
2019-06-26T21:37:34.764Z,10.28
2019-06-26T21:40:03.978Z,10.78
2019-06-26T21:42:32.568Z,10.53
2019-06-26T21:45:01.047Z,11.45
2019-06-26T21:47:29.763Z,10.53
2019-06-26T21:49:58.388Z,10.08
2019-06-26T21:52:26.761Z,11.22
2019-06-26T21:54:55.284Z,10.75
2019-06-26T21:57:24.016Z,10.68
2019-06-26T21:59:52.838Z,10.05
2019-06-26T22:02:22.115Z,11.43
2019-06-26T22:04:50.655Z,10.00
2019-06-26T22:07:19.690Z,10.75
2019-06-26T22:09:48.438Z,11.65
2019-06-26T22:12:17.326Z,10.48
2019-06-26T22:14:45.959Z,11.38
2019-06-26T22:17:15.552Z,12.28
2019-06-26T22:19:44.714Z,13.43
2019-06-26T22:22:13.618Z,11.30
2019-06-26T22:24:42.566Z,11.85
2019-06-26T22:27:13.210Z,11.43
2019-06-26T22:29:42.101Z,11.83
2019-06-26T22:32:11.123Z,10.85
2019-06-26T22:34:39.785Z,12.93
2019-06-26T22:37:08.493Z,11.78
2019-06-26T22:42:07.400Z,12.13
2019-06-26T22:44:36.360Z,12.50
2019-06-26T22:47:05.050Z,11.30
2019-06-26T22:49:33.449Z,12.40
2019-06-26T22:52:02.097Z,11.33
2019-06-26T22:54:31.109Z,11.25
2019-06-26T22:56:59.715Z,11.53
2019-06-26T22:59:28.524Z,10.78
2019-06-26T23:01:57.463Z,12.23
2019-06-26T23:04:26.133Z,10.48
2019-06-26T23:06:55.091Z,11.18
2019-06-26T23:09:23.804Z,11.08
2019-06-26T23:11:52.282Z,11.35
2019-06-26T23:14:20.968Z,10.53
2019-06-26T23:16:49.591Z,10.55
2019-06-26T23:19:18.239Z,9.90
2019-06-26T23:21:46.568Z,10.95
2019-06-26T23:24:14.992Z,10.05
2019-06-26T23:26:43.763Z,9.33
2019-06-26T23:29:14.264Z,8.98
2019-06-26T23:31:43.223Z,8.20
2019-06-26T23:34:12.093Z,8.58
2019-06-26T23:36:40.944Z,9.35
2019-06-26T23:39:09.637Z,8.65
2019-06-26T23:41:38.282Z,8.20
2019-06-26T23:44:07.008Z,9.53
2019-06-26T23:46:35.630Z,8.73
2019-06-26T23:49:04.715Z,9.13
2019-06-26T23:51:33.340Z,10.20
2019-06-26T23:54:02.122Z,8.70
2019-06-26T23:56:40.525Z,8.70
2019-06-26T23:59:02.266Z,8.93
